Time;durP1;ratioP1;P1;durP2;ratioP2;P2;SDS_P1;SDS_P2;PMS_P1;PMS_P2;Temp;Humidity;BMP_temperature;BMP_pressure;BME280_temperature;BME280_humidity;BME280_pressure;Samples;Min_cycle;Max_cycle;Signal;HPM_P1;HPM_P2
2023/06/21 00:01:56;;;;;;;;;;;;;;;30.93;37.70;94146.13;4892043;29;7865;-56
2023/06/21 00:04:23;;;;;;;;;;;;;;;30.91;37.86;94149.41;4892876;29;7039;-56
2023/06/21 00:06:58;;;;;;;;;;;;;;;30.92;37.76;94141.84;4893723;29;6875;-56
2023/06/21 00:09:39;;;;;;;;;;;;;;;30.89;37.78;94149.22;4927479;28;7217;-56
2023/06/21 00:12:16;;;;;;;;;;;;;;;30.88;37.51;94152.56;4965710;28;7253;-56
2023/06/21 00:14:46;;;;;;;;;;;;;;;30.85;38.06;94148.09;4948784;29;7119;-56
2023/06/21 00:17:23;;;;;;;;;;;;;;;30.86;37.83;94142.03;4932059;29;7674;-56
2023/06/21 00:20:37;;;;;;;;;;;;;;;30.82;38.67;94149.91;4947136;29;7301;-56
2023/06/21 00:23:07;;;;;;;;;;;;;;;30.81;38.04;94158.81;4909376;29;8961;-57
2023/06/21 00:26:04;;;;;;;;;;;;;;;30.81;38.36;94164.38;4934829;28;7259;-56
2023/06/21 00:29:03;;;;;;;;;;;;;;;30.83;37.85;94164.56;4932590;29;7176;-56
2023/06/21 00:31:42;;;;;;;;;;;;;;;30.85;37.58;94167.53;4879723;29;9410;-56
2023/06/21 00:34:24;;;;;;;;;;;;;;;30.82;37.75;94177.69;4861841;29;7181;-56
2023/06/21 00:37:11;;;;;;;;;;;;;;;30.82;38.05;94183.25;4864054;29;7225;-56
2023/06/21 00:40:15;;;;;;;;;;;;;;;30.83;37.44;94186.78;4876555;29;7302;-56
2023/06/21 00:42:42;;;;;;;;;;;;;;;30.82;37.62;94188.06;4879012;29;7276;-56
2023/06/21 00:45:14;;;;;;;;;;;;;;;30.81;37.99;94181.03;4863593;29;9428;-56
2023/06/21 00:48:14;;;;;;;;;;;;;;;30.79;37.65;94189.91;4879011;29;7066;-56
2023/06/21 00:50:53;;;;;;;;;;;;;;;30.76;38.03;94190.25;4790546;29;7053;-56
2023/06/21 00:53:40;;;;;;;;;;;;;;;30.74;38.17;94198.41;4792618;29;6990;-56
2023/06/21 00:56:09;;;;;;;;;;;;;;;30.71;38.10;94203.00;4790201;29;8068;-56
2023/06/21 00:58:56;;;;;;;;;;;;;;;30.71;37.40;94205.06;4790391;29;7368;-56
2023/06/21 01:05:22;;;;;;;;;;;;;;;30.66;37.89;94201.16;4850561;29;9261;-56
2023/06/21 01:08:44;;;;;;;;;;;;;;;30.67;38.30;94204.69;4895808;28;7116;-56
2023/06/21 01:11:31;;;;;;;;;;;;;;;30.71;38.40;94211.34;4954027;28;9336;-56
2023/06/21 01:14:14;;;;;;;;;;;;;;;30.71;37.49;94210.63;4937192;28;7026;-56
2023/06/21 01:16:55;;;;;;;;;;;;;;;30.70;37.38;94209.13;4953924;28;9087;-56
2023/06/21 01:19:48;;;;;;;;;;;;;;;30.70;37.10;94215.44;4934888;28;7015;-56
2023/06/21 01:22:57;;;;;;;;;;;;;;;30.69;37.99;94213.22;4935360;28;9458;-56
2023/06/21 01:26:12;;;;;;;;;;;;;;;30.68;38.19;94212.47;4953339;28;7054;-56
2023/06/21 01:32:48;;;;;;;;;;;;;;;30.65;38.04;94221.13;4953674;28;7300;-56
2023/06/21 01:35:16;;;;;;;;;;;;;;;30.66;37.71;94230.94;4934730;28;9114;-56
2023/06/21 01:37:44;;;;;;;;;;;;;;;30.63;37.62;94235.56;4933636;29;8852;-56
2023/06/21 01:40:57;;;;;;;;;;;;;;;30.64;36.72;94242.63;4929816;28;7320;-57
2023/06/21 01:43:40;;;;;;;;;;;;;;;30.62;37.05;94241.66;4956541;28;9564;-56
2023/06/21 01:46:10;;;;;;;;;;;;;;;30.61;37.60;94242.94;4968512;28;7245;-56
2023/06/21 01:48:52;;;;;;;;;;;;;;;30.58;37.01;94247.56;4973109;28;7760;-56
2023/06/21 01:51:39;;;;;;;;;;;;;;;30.57;37.65;94251.63;4955293;28;7047;-56
2023/06/21 01:54:42;;;;;;;;;;;;;;;30.58;36.76;94257.94;4967920;28;9139;-56
2023/06/21 01:57:43;;;;;;;;;;;;;;;30.54;37.30;94269.38;4970912;28;7444;-56
2023/06/21 02:00:17;;;;;;;;;;;;;;;30.51;37.33;94254.56;4972070;28;7503;-56
2023/06/21 02:03:21;;;;;;;;;;;;;;;30.50;37.08;94258.63;4970935;28;9457;-56
2023/06/21 02:05:51;;;;;;;;;;;;;;;30.50;37.17;94255.84;4968233;28;7503;-56
2023/06/21 02:08:33;;;;;;;;;;;;;;;30.53;37.22;94262.34;5007304;28;7030;-56
2023/06/21 02:11:05;;;;;;;;;;;;;;;30.52;37.41;94271.97;5034266;28;9039;-56
2023/06/21 02:13:52;;;;;;;;;;;;;;;30.48;36.55;94269.53;5031900;28;7045;-56
2023/06/21 02:16:56;;;;;;;;;;;;;;;30.47;37.38;94279.16;5031703;28;8812;-57
2023/06/21 02:19:24;;;;;;;;;;;;;;;30.48;36.51;94272.31;5030802;28;7179;-57
2023/06/21 02:21:54;;;;;;;;;;;;;;;30.48;36.78;94277.13;5048700;28;8977;-56
2023/06/21 02:24:30;;;;;;;;;;;;;;;30.45;36.71;94281.72;5029204;28;8750;-56
2023/06/21 02:26:56;;;;;;;;;;;;;;;30.46;36.78;94285.25;5031041;28;9382;-57
2023/06/21 02:29:27;;;;;;;;;;;;;;;30.47;37.21;94281.19;5030459;28;9030;-57
2023/06/21 02:31:53;;;;;;;;;;;;;;;30.49;36.25;94289.72;5062419;28;7351;-57
2023/06/21 02:34:24;;;;;;;;;;;;;;;30.47;36.67;94293.03;5022519;28;7095;-56
2023/06/21 02:36:54;;;;;;;;;;;;;;;30.48;36.50;94294.53;5044427;28;7355;-57
2023/06/21 02:39:22;;;;;;;;;;;;;;;30.47;36.48;94292.31;5021849;28;8658;-57
2023/06/21 02:41:52;;;;;;;;;;;;;;;30.46;36.85;94291.56;5029592;28;8239;-57
2023/06/21 02:44:18;;;;;;;;;;;;;;;30.45;36.54;94289.31;5027033;28;7043;-57
2023/06/21 02:46:53;;;;;;;;;;;;;;;30.45;36.03;94300.41;5025621;28;8080;-57
2023/06/21 02:49:20;;;;;;;;;;;;;;;30.44;36.61;94296.16;5049887;28;7255;-57
2023/06/21 02:51:49;;;;;;;;;;;;;;;30.44;36.29;94301.72;5047616;28;7346;-57
2023/06/21 02:54:30;;;;;;;;;;;;;;;30.41;36.14;94295.22;5031781;28;7238;-57
2023/06/21 02:56:56;;;;;;;;;;;;;;;30.41;36.65;94295.22;5044446;28;8915;-56
2023/06/21 02:59:32;;;;;;;;;;;;;;;30.40;36.12;94287.44;5027537;28;7325;-56
2023/06/21 03:02:13;;;;;;;;;;;;;;;30.40;36.75;94288.19;5047237;28;7202;-56
2023/06/21 03:05:01;;;;;;;;;;;;;;;30.40;36.50;94293.75;5030612;28;7475;-56
2023/06/21 03:07:46;;;;;;;;;;;;;;;30.39;35.95;94292.25;5031602;28;7439;-57
2023/06/21 03:10:23;;;;;;;;;;;;;;;30.40;36.70;94304.09;5046694;28;8609;-57
2023/06/21 03:13:10;;;;;;;;;;;;;;;30.40;36.78;94307.63;5024884;28;7104;-57
2023/06/21 03:19:22;;;;;;;;;;;;;;;30.36;36.72;94309.25;5009488;28;7185;-57
2023/06/21 03:22:23;;;;;;;;;;;;;;;30.38;37.17;94318.50;4981300;28;7240;-56
2023/06/21 03:24:50;;;;;;;;;;;;;;;30.38;37.13;94320.56;5008476;28;7235;-56
2023/06/21 03:27:17;;;;;;;;;;;;;;;30.37;37.39;94313.50;4974826;28;8293;-56
2023/06/21 03:29:56;;;;;;;;;;;;;;;30.36;37.13;94317.56;4986672;28;9759;-56
2023/06/21 03:32:32;;;;;;;;;;;;;;;30.36;36.65;94321.06;5005796;28;8259;-56
2023/06/21 03:35:18;;;;;;;;;;;;;;;30.34;36.69;94323.66;4984694;28;7294;-56
2023/06/21 03:37:57;;;;;;;;;;;;;;;30.35;37.00;94322.38;5008683;28;9033;-56
2023/06/21 03:40:34;;;;;;;;;;;;;;;30.35;36.38;94325.16;4985818;28;7268;-56
2023/06/21 03:43:04;;;;;;;;;;;;;;;30.36;36.20;94321.06;4987019;28;7117;-56
2023/06/21 03:45:30;;;;;;;;;;;;;;;30.36;37.18;94337.72;5009004;28;7205;-56
2023/06/21 03:48:12;;;;;;;;;;;;;;;30.33;36.71;94336.06;4986860;28;9280;-56
2023/06/21 03:50:58;;;;;;;;;;;;;;;30.32;36.88;94342.88;4985952;28;7471;-56
2023/06/21 03:53:58;;;;;;;;;;;;;;;30.29;37.31;94349.50;4986037;28;7297;-56
2023/06/21 03:56:36;;;;;;;;;;;;;;;30.30;36.35;94353.75;4936016;28;9167;-56
2023/06/21 03:59:21;;;;;;;;;;;;;;;30.30;36.28;94364.09;4949435;28;9114;-56
2023/06/21 04:02:25;;;;;;;;;;;;;;;30.28;36.35;94353.56;4963926;28;7271;-56
2023/06/21 04:04:55;;;;;;;;;;;;;;;30.31;36.79;94369.16;4980538;28;7923;-56
2023/06/21 04:08:06;;;;;;;;;;;;;;;30.31;36.31;94371.94;4953486;28;7055;-56
2023/06/21 04:10:43;;;;;;;;;;;;;;;30.28;36.81;94378.53;4939593;28;7610;-56
2023/06/21 04:13:19;;;;;;;;;;;;;;;30.27;37.45;94370.75;4952116;28;7032;-55
2023/06/21 04:15:46;;;;;;;;;;;;;;;30.25;37.01;94376.09;4954839;28;7127;-56
2023/06/21 04:19:06;;;;;;;;;;;;;;;30.28;36.32;94389.63;4955737;28;8844;-56
2023/06/21 04:21:56;;;;;;;;;;;;;;;30.27;37.50;94390.94;4953329;28;7481;-56
2023/06/21 04:24:36;;;;;;;;;;;;;;;30.25;36.37;94393.50;4954661;28;8688;-56
2023/06/21 04:27:12;;;;;;;;;;;;;;;30.25;37.51;94387.19;4939274;28;9492;-56
2023/06/21 04:30:22;;;;;;;;;;;;;;;30.24;36.70;94392.00;4939642;28;7030;-56
2023/06/21 04:33:21;;;;;;;;;;;;;;;30.26;36.57;94392.19;4933252;28;7019;-56
2023/06/21 04:35:57;;;;;;;;;;;;;;;30.26;36.65;94391.44;4921496;28;7199;-56
2023/06/21 04:38:33;;;;;;;;;;;;;;;30.23;37.32;94401.59;4945096;28;8789;-56
2023/06/21 04:41:39;;;;;;;;;;;;;;;30.23;37.10;94409.91;4945241;28;8552;-56
2023/06/21 04:44:58;;;;;;;;;;;;;;;30.24;36.57;94419.00;4931810;29;7277;-56
2023/06/21 04:47:24;;;;;;;;;;;;;;;30.16;37.87;94418.94;4948130;28;7247;-56
2023/06/21 04:50:11;;;;;;;;;;;;;;;30.19;37.69;94417.13;4970706;28;8482;-56
2023/06/21 04:53:03;;;;;;;;;;;;;;;30.19;37.22;94414.34;4939289;28;7179;-56
2023/06/21 04:55:52;;;;;;;;;;;;;;;30.18;38.30;94421.16;4939555;28;8744;-56
2023/06/21 04:58:35;;;;;;;;;;;;;;;30.18;37.58;94418.38;4938020;28;7065;-57
2023/06/21 05:01:24;;;;;;;;;;;;;;;30.19;37.97;94406.75;4966333;28;7549;-57
2023/06/21 05:04:20;;;;;;;;;;;;;;;30.23;37.53;94403.66;4949649;28;7305;-57
2023/06/21 05:06:50;;;;;;;;;;;;;;;30.25;38.38;94407.38;4936341;28;7466;-57
2023/06/21 05:09:29;;;;;;;;;;;;;;;30.29;38.29;94413.31;4967601;28;7080;-57
2023/06/21 05:12:40;;;;;;;;;;;;;;;30.26;37.40;94410.88;5049303;28;8999;-57
2023/06/21 05:15:23;;;;;;;;;;;;;;;30.24;38.46;94419.75;5027953;28;8735;-56
2023/06/21 05:18:00;;;;;;;;;;;;;;;30.23;37.72;94418.25;5062232;28;9223;-57
2023/06/21 05:20:55;;;;;;;;;;;;;;;30.23;37.45;94418.25;5031602;28;7018;-57
2023/06/21 05:23:30;;;;;;;;;;;;;;;30.22;38.80;94421.56;4985189;28;7273;-56
2023/06/21 05:25:58;;;;;;;;;;;;;;;30.20;38.46;94433.22;4972860;28;7176;-57
2023/06/21 05:28:27;;;;;;;;;;;;;;;30.20;38.46;94436.00;4986433;28;8266;-56
2023/06/21 05:30:53;;;;;;;;;;;;;;;30.19;38.46;94440.03;4983660;28;7253;-56
2023/06/21 05:33:29;;;;;;;;;;;;;;;30.23;38.59;94446.00;4991342;28;7229;-56
2023/06/21 05:35:55;;;;;;;;;;;;;;;30.26;38.23;94447.69;4984081;28;7022;-56
2023/06/21 05:38:22;;;;;;;;;;;;;;;30.28;38.02;94450.66;4991044;28;7302;-57
2023/06/21 05:41:06;;;;;;;;;;;;;;;30.28;38.47;94447.91;4974264;28;7234;-56
2023/06/21 05:44:09;;;;;;;;;;;;;;;30.30;38.19;94441.78;4971142;28;6876;-56
2023/06/21 05:46:35;;;;;;;;;;;;;;;30.25;39.44;94443.44;4982968;28;9108;-56
2023/06/21 05:49:08;;;;;;;;;;;;;;;30.20;38.35;94458.19;4986816;28;7004;-57
2023/06/21 05:51:36;;;;;;;;;;;;;;;30.21;38.47;94453.38;4973291;28;9236;-57
2023/06/21 05:54:12;;;;;;;;;;;;;;;30.21;38.84;94443.00;4984745;28;7050;-56
2023/06/21 05:56:40;;;;;;;;;;;;;;;30.24;39.41;94457.84;4984486;28;7261;-57
2023/06/21 05:59:07;;;;;;;;;;;;;;;30.24;38.79;94457.84;4991494;28;10524;-56
2023/06/21 06:01:38;;;;;;;;;;;;;;;30.26;39.27;94450.47;5057907;28;9035;-57
2023/06/21 06:04:05;;;;;;;;;;;;;;;30.28;39.77;94459.00;5028760;28;9299;-57
2023/06/21 06:06:50;;;;;;;;;;;;;;;30.28;39.14;94459.00;5038090;28;7246;-57
2023/06/21 06:09:30;;;;;;;;;;;;;;;30.28;39.25;94444.38;5029627;28;7032;-57
2023/06/21 06:12:15;;;;;;;;;;;;;;;30.28;40.07;94434.03;5024938;28;7041;-57
2023/06/21 06:14:41;;;;;;;;;;;;;;;30.28;40.18;94436.78;5022768;28;7047;-57
2023/06/21 06:17:17;;;;;;;;;;;;;;;30.28;39.74;94436.78;5046277;28;6906;-57
2023/06/21 06:19:56;;;;;;;;;;;;;;;30.28;40.43;94428.47;5027278;28;9044;-57
2023/06/21 06:22:49;;;;;;;;;;;;;;;30.28;39.66;94422.94;5039705;28;7007;-57
2023/06/21 06:25:17;;;;;;;;;;;;;;;30.27;40.52;94415.91;5030500;28;7030;-57
2023/06/21 06:28:03;;;;;;;;;;;;;;;30.30;39.21;94403.69;5030986;28;8809;-57
2023/06/21 06:30:29;;;;;;;;;;;;;;;30.29;39.98;94391.13;5030121;28;8878;-56
2023/06/21 06:32:57;;;;;;;;;;;;;;;30.27;39.47;94390.94;5031221;28;9336;-56
2023/06/21 06:35:34;;;;;;;;;;;;;;;30.32;39.53;94403.94;5032157;28;7050;-57
2023/06/21 06:38:03;;;;;;;;;;;;;;;30.30;39.90;94402.94;5033524;28;7013;-56
2023/06/21 06:40:47;;;;;;;;;;;;;;;30.34;39.32;94390.25;5027366;28;8642;-56
2023/06/21 06:43:45;;;;;;;;;;;;;;;30.33;39.59;94377.69;5031832;28;7298;-56
2023/06/21 06:46:11;;;;;;;;;;;;;;;30.31;40.30;94385.81;4975215;28;7482;-56
2023/06/21 06:48:37;;;;;;;;;;;;;;;30.31;40.46;94377.47;4981146;28;6994;-57
2023/06/21 06:51:04;;;;;;;;;;;;;;;30.34;40.06;94368.06;4937511;28;7044;-57
2023/06/21 06:53:30;;;;;;;;;;;;;;;30.30;40.61;94362.06;4976864;28;7159;-57
2023/06/21 06:56:01;;;;;;;;;;;;;;;30.34;40.60;94361.78;4984342;28;8749;-57
2023/06/21 06:58:29;;;;;;;;;;;;;;;30.34;40.34;94356.94;4977853;28;7280;-57
2023/06/21 07:00:55;;;;;;;;;;;;;;;30.33;40.46;94361.03;4978375;28;7332;-57
2023/06/21 07:03:24;;;;;;;;;;;;;;;30.30;40.39;94348.19;4993564;28;7586;-57
2023/06/21 07:06:10;;;;;;;;;;;;;;;30.33;40.82;94357.50;4961804;28;7251;-57
2023/06/21 07:09:06;;;;;;;;;;;;;;;30.33;41.09;94366.59;4985113;28;7174;-57
2023/06/21 07:12:08;;;;;;;;;;;;;;;30.35;40.88;94379.91;4966665;28;9143;-57
2023/06/21 07:14:46;;;;;;;;;;;;;;;30.36;40.74;94404.31;4934355;28;7046;-57
2023/06/21 07:17:23;;;;;;;;;;;;;;;30.35;41.12;94399.34;4949492;28;7092;-56
2023/06/21 07:19:49;;;;;;;;;;;;;;;30.34;40.77;94420.06;4947094;28;8218;-56
2023/06/21 07:22:15;;;;;;;;;;;;;;;30.30;41.92;94456.41;4961059;28;7697;-57
2023/06/21 07:25:03;;;;;;;;;;;;;;;30.17;42.62;94473.13;4988246;28;7226;-56
2023/06/21 07:27:44;;;;;;;;;;;;;;;30.05;42.67;94496.88;4988134;28;7415;-57
2023/06/21 07:30:22;;;;;;;;;;;;;;;30.04;43.00;94511.25;4986757;28;9216;-57
2023/06/21 07:33:20;;;;;;;;;;;;;;;29.90;42.56;94524.44;4988386;28;7886;-57
2023/06/21 07:35:48;;;;;;;;;;;;;;;29.81;42.75;94544.28;4989232;28;7345;-57
2023/06/21 07:38:29;;;;;;;;;;;;;;;29.72;42.79;94555.78;4987518;28;7100;-57
2023/06/21 07:41:04;;;;;;;;;;;;;;;29.71;44.04;94562.63;4973449;28;7040;-57
2023/06/21 07:44:02;;;;;;;;;;;;;;;29.63;43.68;94551.41;4989621;28;9168;-57
2023/06/21 07:46:28;;;;;;;;;;;;;;;29.56;43.93;94545.75;4974368;28;8730;-57
2023/06/21 07:48:56;;;;;;;;;;;;;;;29.60;44.11;94548.97;4987649;28;7151;-57
2023/06/21 07:51:41;;;;;;;;;;;;;;;29.68;43.78;94539.47;5031996;28;7207;-57
2023/06/21 07:54:09;;;;;;;;;;;;;;;29.72;43.21;94537.13;5061603;28;9139;-57
2023/06/21 07:56:36;;;;;;;;;;;;;;;29.72;43.20;94531.56;5042352;28;9056;-57
2023/06/21 07:59:04;;;;;;;;;;;;;;;29.73;43.70;94540.63;5028640;28;7461;-57
2023/06/21 08:01:30;;;;;;;;;;;;;;;29.67;43.19;94545.53;5041978;28;9438;-57
2023/06/21 08:03:59;;;;;;;;;;;;;;;29.65;43.30;94554.38;5022879;28;7191;-57
2023/06/21 08:06:29;;;;;;;;;;;;;;;29.72;42.73;94553.75;5021493;28;7022;-57
2023/06/21 08:09:12;;;;;;;;;;;;;;;29.75;42.10;94552.69;5043012;28;9576;-57
2023/06/21 08:11:38;;;;;;;;;;;;;;;29.81;41.65;94555.38;5043825;28;7080;-57
2023/06/21 08:14:12;;;;;;;;;;;;;;;29.84;42.11;94553.56;5022832;28;7021;-56
2023/06/21 08:16:38;;;;;;;;;;;;;;;29.92;41.37;94555.16;5030774;28;7084;-56
2023/06/21 08:19:20;;;;;;;;;;;;;;;29.94;42.04;94546.28;5024961;28;7992;-56
2023/06/21 08:21:50;;;;;;;;;;;;;;;29.98;40.98;94541.16;5042163;28;7135;-56
2023/06/21 08:24:37;;;;;;;;;;;;;;;30.01;41.01;94535.28;5046413;28;8999;-56
2023/06/21 08:27:16;;;;;;;;;;;;;;;30.06;40.10;94526.09;5045395;28;9187;-56
2023/06/21 08:29:43;;;;;;;;;;;;;;;30.08;40.59;94515.19;5043441;28;9161;-56
2023/06/21 08:32:15;;;;;;;;;;;;;;;30.10;40.01;94520.22;5024954;28;7145;-56
2023/06/21 08:34:47;;;;;;;;;;;;;;;30.13;41.72;94527.44;5024423;28;8967;-56
2023/06/21 08:37:17;;;;;;;;;;;;;;;30.17;41.33;94531.38;5059514;28;7380;-56
2023/06/21 08:39:43;;;;;;;;;;;;;;;30.17;40.57;94525.84;5027565;28;9056;-57
2023/06/21 08:42:20;;;;;;;;;;;;;;;30.19;41.37;94522.53;5044500;28;7204;-57
2023/06/21 08:44:49;;;;;;;;;;;;;;;30.20;41.15;94533.09;5044918;28;8868;-57
2023/06/21 08:47:35;;;;;;;;;;;;;;;30.16;40.71;94529.91;5026293;28;7303;-57
2023/06/21 08:50:03;;;;;;;;;;;;;;;30.12;41.25;94523.97;5044003;28;9452;-57
2023/06/21 08:52:45;;;;;;;;;;;;;;;30.14;39.55;94526.94;5050245;28;8829;-57
2023/06/21 08:55:15;;;;;;;;;;;;;;;30.19;40.20;94531.59;5025867;28;7099;-57
2023/06/21 08:57:49;;;;;;;;;;;;;;;30.18;39.29;94549.53;5044887;28;9049;-57
2023/06/21 09:00:20;;;;;;;;;;;;;;;30.11;39.37;94538.34;5045207;28;7070;-57
2023/06/21 09:03:12;;;;;;;;;;;;;;;30.10;39.70;94536.88;5027205;28;7026;-57
2023/06/21 09:05:52;;;;;;;;;;;;;;;30.08;38.84;94531.13;5028196;28;7145;-57
2023/06/21 09:08:19;;;;;;;;;;;;;;;30.07;38.93;94530.38;5024660;28;7031;-57
2023/06/21 09:11:09;;;;;;;;;;;;;;;30.06;37.87;94526.09;5045695;28;7028;-57
2023/06/21 09:13:46;;;;;;;;;;;;;;;30.04;38.77;94508.47;5025893;28;7218;-56
2023/06/21 09:16:14;;;;;;;;;;;;;;;30.06;38.04;94520.53;5032367;28;7327;-57
2023/06/21 09:18:52;;;;;;;;;;;;;;;30.10;37.46;94531.31;5026987;28;7281;-57
2023/06/21 09:21:27;;;;;;;;;;;;;;;30.09;38.08;94519.47;5032523;28;7534;-57
2023/06/21 09:23:57;;;;;;;;;;;;;;;30.06;37.66;94519.81;5045801;28;9110;-57
2023/06/21 09:26:25;;;;;;;;;;;;;;;30.08;36.76;94533.88;5031727;28;6977;-57
2023/06/21 09:29:10;;;;;;;;;;;;;;;30.03;36.12;94531.97;5031169;28;7224;-57
2023/06/21 09:31:45;;;;;;;;;;;;;;;29.99;36.80;94542.66;5046920;28;7308;-57
2023/06/21 09:34:18;;;;;;;;;;;;;;;30.04;37.18;94539.00;5027152;28;7037;-57
2023/06/21 09:36:48;;;;;;;;;;;;;;;30.14;36.75;94532.47;5021847;28;7372;-57
2023/06/21 09:39:15;;;;;;;;;;;;;;;30.35;36.76;94529.75;5058558;28;7058;-57
2023/06/21 09:41:43;;;;;;;;;;;;;;;30.41;36.92;94539.44;5019348;28;8473;-58
2023/06/21 09:44:09;;;;;;;;;;;;;;;30.41;35.78;94533.91;5025732;28;7651;-57
2023/06/21 09:46:36;;;;;;;;;;;;;;;30.43;36.46;94530.56;5022639;28;9216;-56
2023/06/21 09:49:09;;;;;;;;;;;;;;;30.41;36.62;94527.59;5034733;28;7240;-57
2023/06/21 09:51:48;;;;;;;;;;;;;;;30.41;36.94;94528.34;5027155;28;7262;-57
2023/06/21 09:54:14;;;;;;;;;;;;;;;30.39;37.11;94530.16;5021515;28;7349;-57
2023/06/21 09:56:40;;;;;;;;;;;;;;;30.36;37.54;94532.00;5020922;28;8992;-56
2023/06/21 09:59:18;;;;;;;;;;;;;;;30.35;37.41;94536.06;5043570;28;8905;-57
2023/06/21 10:01:49;;;;;;;;;;;;;;;30.39;37.27;94541.28;5028561;28;9581;-57
2023/06/21 10:04:16;;;;;;;;;;;;;;;30.39;37.97;94542.03;5040790;28;9369;-56
2023/06/21 10:06:55;;;;;;;;;;;;;;;30.39;37.31;94541.28;5019756;28;6860;-57
2023/06/21 10:09:22;;;;;;;;;;;;;;;30.36;37.20;94540.31;5061880;28;8642;-57
2023/06/21 10:11:49;;;;;;;;;;;;;;;30.38;38.20;94539.78;5029079;28;9471;-57
2023/06/21 10:14:25;;;;;;;;;;;;;;;30.38;37.85;94529.41;5020844;28;8862;-56
2023/06/21 10:16:53;;;;;;;;;;;;;;;30.37;37.33;94533.50;5027361;28;7277;-56
2023/06/21 10:19:32;;;;;;;;;;;;;;;30.37;37.06;94530.72;5043869;28;7691;-56
2023/06/21 10:22:01;;;;;;;;;;;;;;;30.37;38.46;94532.75;5058876;28;9044;-57
2023/06/21 10:24:41;;;;;;;;;;;;;;;30.42;37.89;94540.97;5027744;28;7100;-57
2023/06/21 10:27:10;;;;;;;;;;;;;;;30.47;38.21;94542.13;5041907;28;7430;-57
2023/06/21 10:29:41;;;;;;;;;;;;;;;30.44;37.86;94546.72;5020294;28;7271;-57
2023/06/21 10:32:08;;;;;;;;;;;;;;;30.47;38.06;94553.22;5031655;28;7313;-57
2023/06/21 10:35:06;;;;;;;;;;;;;;;30.49;38.29;94548.59;5027677;28;7440;-57
2023/06/21 10:37:48;;;;;;;;;;;;;;;30.50;38.81;94546.56;5029753;28;8973;-56
2023/06/21 10:40:19;;;;;;;;;;;;;;;30.49;37.50;94540.25;5029530;28;6856;-57
2023/06/21 10:42:47;;;;;;;;;;;;;;;30.49;37.91;94534.00;5019745;28;9116;-57
2023/06/21 10:45:13;;;;;;;;;;;;;;;30.50;38.87;94532.69;5023454;28;6980;-56
2023/06/21 10:47:41;;;;;;;;;;;;;;;30.51;38.19;94532.13;5058470;28;7163;-57
2023/06/21 10:50:08;;;;;;;;;;;;;;;30.54;37.53;94530.31;5016792;28;9036;-56
2023/06/21 10:52:38;;;;;;;;;;;;;;;30.51;39.25;94539.75;5018385;28;7111;-57
2023/06/21 10:55:08;;;;;;;;;;;;;;;30.49;38.39;94531.94;5024140;28;7043;-57
2023/06/21 10:57:37;;;;;;;;;;;;;;;30.51;38.44;94523.81;5022746;28;7138;-57
2023/06/21 11:00:08;;;;;;;;;;;;;;;30.52;38.51;94525.31;5027702;28;7720;-57
2023/06/21 11:02:35;;;;;;;;;;;;;;;30.49;38.36;94518.06;5023286;28;7264;-57
2023/06/21 11:05:24;;;;;;;;;;;;;;;30.56;38.77;94532.56;5038088;28;7318;-57
2023/06/21 11:07:55;;;;;;;;;;;;;;;30.57;37.83;94528.50;5022814;28;7049;-57
2023/06/21 11:10:30;;;;;;;;;;;;;;;30.56;38.34;94532.56;5027358;28;9439;-57
2023/06/21 11:12:59;;;;;;;;;;;;;;;30.58;37.91;94535.56;5024274;28;7118;-58
2023/06/21 11:15:26;;;;;;;;;;;;;;;30.58;38.47;94535.56;5024460;28;7045;-58
2023/06/21 11:18:08;;;;;;;;;;;;;;;30.58;38.68;94533.50;5025862;28;7195;-57
2023/06/21 11:20:54;;;;;;;;;;;;;;;30.58;38.04;94530.00;5055598;28;8807;-57
2023/06/21 11:23:23;;;;;;;;;;;;;;;30.63;38.31;94529.09;5024451;28;9156;-57
2023/06/21 11:26:14;;;;;;;;;;;;;;;30.65;38.32;94532.09;5036745;28;7036;-57
2023/06/21 11:29:12;;;;;;;;;;;;;;;30.65;38.37;94523.75;5020811;28;7042;-57
2023/06/21 11:31:42;;;;;;;;;;;;;;;30.67;38.60;94518.44;5042484;28;8710;-57
2023/06/21 11:34:23;;;;;;;;;;;;;;;30.70;38.92;94514.56;5009514;28;9400;-57
2023/06/21 11:37:31;;;;;;;;;;;;;;;30.74;39.47;94512.19;5045286;28;7361;-57
2023/06/21 11:40:24;;;;;;;;;;;;;;;30.61;39.00;94510.22;5029420;28;8657;-57
2023/06/21 11:43:05;;;;;;;;;;;;;;;30.67;38.12;94518.44;5030689;28;7181;-57
2023/06/21 11:45:35;;;;;;;;;;;;;;;30.64;38.20;94511.16;5062211;28;6936;-57
2023/06/21 11:48:13;;;;;;;;;;;;;;;30.64;39.16;94519.50;5030709;28;7763;-57
2023/06/21 11:50:45;;;;;;;;;;;;;;;30.63;39.24;94512.44;5029690;28;7026;-57
2023/06/21 11:53:39;;;;;;;;;;;;;;;30.65;39.26;94515.41;5021029;28;7217;-57
2023/06/21 11:56:20;;;;;;;;;;;;;;;30.70;38.57;94520.84;5044528;28;7401;-57
2023/06/21 11:58:53;;;;;;;;;;;;;;;30.65;39.01;94515.41;5045592;28;9098;-57
2023/06/21 12:01:21;;;;;;;;;;;;;;;30.66;38.86;94509.34;5031050;28;8948;-56
2023/06/21 12:03:56;;;;;;;;;;;;;;;30.68;38.64;94511.56;5024596;28;7038;-57
2023/06/21 12:06:24;;;;;;;;;;;;;;;30.68;39.19;94517.13;5027474;28;7214;-57
2023/06/21 12:08:56;;;;;;;;;;;;;;;30.65;38.75;94515.41;5027937;28;7051;-57
2023/06/21 12:11:26;;;;;;;;;;;;;;;30.70;38.76;94520.09;5029895;28;8748;-57
2023/06/21 12:13:59;;;;;;;;;;;;;;;30.68;39.38;94522.69;5022659;28;9257;-57
2023/06/21 12:16:28;;;;;;;;;;;;;;;30.75;39.22;94519.22;5043102;28;8252;-57
2023/06/21 12:18:55;;;;;;;;;;;;;;;30.76;39.07;94524.22;5059104;28;7253;-56
2023/06/21 12:21:33;;;;;;;;;;;;;;;30.76;39.72;94531.81;5026749;28;7050;-57
2023/06/21 12:24:05;;;;;;;;;;;;;;;30.77;38.32;94531.28;5044389;28;7338;-57
2023/06/21 12:26:31;;;;;;;;;;;;;;;30.77;38.83;94525.75;5022190;28;9049;-57
2023/06/21 12:28:59;;;;;;;;;;;;;;;30.76;38.76;94529.78;5047013;28;9070;-57
2023/06/21 12:31:33;;;;;;;;;;;;;;;30.78;39.01;94527.22;5063429;28;9623;-57
2023/06/21 12:34:02;;;;;;;;;;;;;;;30.81;38.25;94528.91;5029354;28;7027;-57
2023/06/21 12:36:32;;;;;;;;;;;;;;;30.82;37.82;94538.00;5049156;28;7298;-57
2023/06/21 12:39:02;;;;;;;;;;;;;;;30.82;38.61;94529.66;5033873;28;7134;-57
2023/06/21 12:41:43;;;;;;;;;;;;;;;30.79;38.94;94534.28;5046982;28;7318;-57
2023/06/21 12:44:26;;;;;;;;;;;;;;;30.83;39.09;94545.03;5025333;28;7033;-57
2023/06/21 12:46:56;;;;;;;;;;;;;;;30.85;38.05;94548.75;5049110;28;7265;-57
2023/06/21 12:49:22;;;;;;;;;;;;;;;30.85;38.13;94542.44;5033197;28;9856;-57
2023/06/21 12:52:02;;;;;;;;;;;;;;;30.86;38.43;94546.72;5033993;28;7501;-57
2023/06/21 12:54:57;;;;;;;;;;;;;;;30.90;39.04;94544.38;5028646;28;8641;-57
2023/06/21 12:57:44;;;;;;;;;;;;;;;30.91;38.72;94552.16;5027444;28;7192;-57
2023/06/21 13:00:12;;;;;;;;;;;;;;;30.93;38.37;94557.91;5047957;28;7068;-57
2023/06/21 13:03:03;;;;;;;;;;;;;;;30.94;38.53;94542.00;5027489;28;7104;-57
2023/06/21 13:05:36;;;;;;;;;;;;;;;30.98;37.58;94539.63;5026094;28;7213;-57
2023/06/21 13:08:03;;;;;;;;;;;;;;;30.97;38.51;94527.03;5032035;28;8364;-57
2023/06/21 13:10:59;;;;;;;;;;;;;;;30.95;38.14;94513.69;5033718;28;9390;-57
2023/06/21 13:13:36;;;;;;;;;;;;;;;30.92;38.39;94516.81;5048354;28;8916;-57
2023/06/21 13:16:17;;;;;;;;;;;;;;;30.93;38.43;94509.97;5027963;28;7251;-57
2023/06/21 13:19:02;;;;;;;;;;;;;;;30.90;38.29;94503.47;5033661;28;6969;-57
2023/06/21 13:21:37;;;;;;;;;;;;;;;30.92;38.63;94511.25;5030818;28;8709;-57
2023/06/21 13:24:09;;;;;;;;;;;;;;;30.94;37.68;94517.75;5062934;28;8995;-57
2023/06/21 13:26:38;;;;;;;;;;;;;;;30.94;38.01;94517.00;5027295;28;7109;-58
2023/06/21 13:29:08;;;;;;;;;;;;;;;30.93;37.73;94515.53;5031778;28;7120;-56
2023/06/21 13:31:50;;;;;;;;;;;;;;;30.94;38.57;94519.78;5033285;28;7042;-56
2023/06/21 13:34:54;;;;;;;;;;;;;;;30.91;37.59;94506.97;5048228;28;9027;-57
2023/06/21 13:37:40;;;;;;;;;;;;;;;30.92;37.84;94508.47;4986649;28;7127;-57
2023/06/21 13:40:09;;;;;;;;;;;;;;;30.87;38.05;94496.22;4984500;28;7314;-56
2023/06/21 13:42:49;;;;;;;;;;;;;;;30.86;38.15;94516.19;4983486;28;7249;-56
2023/06/21 13:45:28;;;;;;;;;;;;;;;30.85;37.95;94536.91;4974619;28;7462;-56
2023/06/21 13:48:16;;;;;;;;;;;;;;;30.84;37.72;94543.75;4974661;28;9009;-57
2023/06/21 13:50:55;;;;;;;;;;;;;;;30.88;38.21;94541.41;4989542;28;7241;-57
2023/06/21 13:53:44;;;;;;;;;;;;;;;30.86;38.49;94549.50;4968359;28;7477;-56
2023/06/21 13:56:19;;;;;;;;;;;;;;;30.87;38.12;94540.66;4973556;28;8875;-56
2023/06/21 13:58:45;;;;;;;;;;;;;;;30.91;37.86;94529.19;4965437;28;7238;-57
2023/06/21 14:01:11;;;;;;;;;;;;;;;30.91;37.96;94524.38;4970466;28;7394;-57
2023/06/21 14:03:40;;;;;;;;;;;;;;;30.92;38.20;94531.44;4986537;28;7275;-56
2023/06/21 14:06:18;;;;;;;;;;;;;;;30.98;37.68;94534.81;4970429;28;8207;-57